Time;durP1;ratioP1;P1;durP2;ratioP2;P2;SDS_P1;SDS_P2;PMS_P1;PMS_P2;Temp;Humidity;BMP_temperature;BMP_pressure;BME280_temperature;BME280_humidity;BME280_pressure;Samples;Min_cycle;Max_cycle;Signal;HPM_P1;HPM_P2
2023/07/14 00:04:43;;;;;;;6.25;4.30;;;;;;;15.37;74.70;100283.03;30745885;28;102544;-65
2023/07/14 00:19:44;;;;;;;5.55;4.05;;;;;;;15.36;75.13;100308.19;30744011;28;96774;-65
2023/07/14 00:34:45;;;;;;;6.72;4.07;;;;;;;15.40;74.98;100306.78;30742480;28;97577;-66
2023/07/14 00:49:49;;;;;;;10.33;4.53;;;;;;;15.24;74.83;100313.31;30741266;28;96742;-65
2023/07/14 01:05:10;;;;;;;7.67;4.23;;;;;;;15.17;75.27;100315.97;30738965;28;97113;-65
2023/07/14 01:20:11;;;;;;;7.77;4.97;;;;;;;15.02;75.42;100320.59;30846180;28;96813;-65
2023/07/14 01:35:13;;;;;;;7.73;5.70;;;;;;;14.75;75.58;100336.50;30857960;28;96805;-66
2023/07/14 01:50:22;;;;;;;11.00;6.37;;;;;;;14.60;75.81;100346.44;30857048;28;97888;-66
2023/07/14 02:05:33;;;;;;;14.00;6.87;;;;;;;14.43;76.38;100368.13;30854537;28;96807;-65
2023/07/14 02:20:39;;;;;;;14.10;6.93;;;;;;;14.39;76.68;100372.22;30854149;28;96880;-65
2023/07/14 02:35:51;;;;;;;12.60;6.63;;;;;;;14.42;76.92;100390.63;30853962;28;96820;-65
2023/07/14 02:50:51;;;;;;;7.37;6.10;;;;;;;14.41;77.10;100405.03;30851606;28;96756;-65
2023/07/14 03:05:53;;;;;;;12.98;6.32;;;;;;;14.40;76.42;100416.78;30851995;28;96749;-65
2023/07/14 03:20:59;;;;;;;13.00;5.93;;;;;;;14.51;76.74;100429.66;30850002;28;97305;-66
2023/07/14 03:36:04;;;;;;;10.83;5.80;;;;;;;14.50;76.43;100444.09;30867949;28;96651;-65
2023/07/14 03:51:05;;;;;;;13.27;6.47;;;;;;;14.81;76.19;100455.56;30862019;28;96770;-65
2023/07/14 04:06:06;;;;;;;15.93;5.80;;;;;;;14.92;75.74;100471.16;30863821;28;96789;-65
2023/07/14 04:21:10;;;;;;;8.30;4.50;;;;;;;15.17;75.31;100482.31;30863426;28;96682;-65
2023/07/14 04:36:11;;;;;;;11.67;4.70;;;;;;;16.02;74.72;100481.47;30859702;28;97635;-66
2023/07/14 04:51:11;;;;;;;10.93;3.83;;;;;;;16.83;73.19;100493.34;30859429;28;97315;-66
2023/07/14 05:06:12;;;;;;;11.52;3.92;;;;;;;17.52;70.89;100502.09;30854670;28;107513;-67
2023/07/14 05:21:13;;;;;;;10.73;3.78;;;;;;;18.06;68.92;100500.16;30856143;28;96804;-68
2023/07/14 05:36:13;;;;;;;12.70;3.60;;;;;;;18.36;67.16;100499.66;30851685;28;96936;-71
2023/07/14 05:51:13;;;;;;;7.65;3.65;;;;;;;19.39;65.64;100511.28;30847923;28;97071;-69
2023/07/14 06:06:14;;;;;;;8.43;2.72;;;;;;;20.67;62.64;100530.50;30855968;28;96976;-72
2023/07/14 06:21:15;;;;;;;7.47;2.73;;;;;;;21.74;59.78;100528.88;30856386;28;97009;-74
2023/07/14 06:36:15;;;;;;;3.93;1.97;;;;;;;22.86;56.23;100534.19;30853898;28;97232;-77
2023/07/14 06:51:15;;;;;;;;;;;;;;;23.21;53.39;100535.91;30771500;28;99081;-72
2023/07/14 07:06:16;;;;;;;3.70;2.00;;;;;;;23.69;50.63;100554.59;30750504;28;97139;-72
2023/07/14 07:21:17;;;;;;;5.33;1.70;;;;;;;23.47;48.96;100544.50;30846501;28;97106;-83
2023/07/14 07:36:17;;;;;;;5.95;2.53;;;;;;;23.44;47.71;100536.81;30865782;28;98973;-68
2023/07/14 07:51:18;;;;;;;3.90;2.22;;;;;;;24.09;46.44;100531.81;30863052;28;96720;-70
2023/07/14 08:06:21;;;;;;;5.53;1.87;;;;;;;25.25;44.36;100524.34;30862384;28;97243;-72
2023/07/14 08:21:22;;;;;;;8.20;2.43;;;;;;;25.19;42.81;100536.28;30861328;28;96854;-69
2023/07/14 08:36:23;;;;;;;3.80;1.90;;;;;;;24.78;42.58;100535.88;30861985;28;97433;-69
2023/07/14 08:51:36;;;;;;;6.17;2.33;;;;;;;25.09;43.07;100530.75;30861599;28;97666;-72
2023/07/14 09:06:38;;;;;;;6.47;2.50;;;;;;;26.61;39.93;100530.31;30859455;28;97024;-68
2023/07/14 09:21:48;;;;;;;6.73;2.10;;;;;;;27.43;39.40;100513.19;30857491;28;97824;-71
2023/07/14 09:36:49;;;;;;;5.93;2.20;;;;;;;28.16;36.13;100507.28;30853181;28;97545;-69
2023/07/14 09:52:10;;;;;;;2.73;1.70;;;;;;;28.82;35.01;100490.78;30855677;28;98267;-67
2023/07/14 10:07:25;;;;;;;3.47;1.93;;;;;;;28.50;34.12;100470.09;30853770;28;97227;-68
2023/07/14 10:22:31;;;;;;;8.33;1.80;;;;;;;29.31;32.30;100453.34;30848694;28;96775;-67
2023/07/14 10:37:40;;;;;;;6.63;2.00;;;;;;;31.19;30.70;100439.25;30863277;28;96797;-67
2023/07/14 10:52:44;;;;;;;6.67;2.20;;;;;;;31.35;30.42;100417.75;30870431;28;97143;-67
2023/07/14 11:07:44;;;;;;;4.40;1.73;;;;;;;31.43;29.20;100412.69;30870559;28;96851;-67
2023/07/14 11:23:00;;;;;;;5.32;1.70;;;;;;;31.85;29.03;100388.69;30861167;28;98213;-65
2023/07/14 11:38:15;;;;;;;4.47;1.90;;;;;;;32.35;28.38;100371.34;30842029;28;96741;-69
2023/07/14 11:53:21;;;;;;;5.00;1.87;;;;;;;32.50;27.01;100364.63;30812144;28;96762;-69
2023/07/14 12:08:23;;;;;;;2.67;1.50;;;;;;;32.32;27.58;100350.72;30783254;28;97453;-69
2023/07/14 12:23:27;;;;;;;3.83;1.53;;;;;;;32.28;26.45;100337.88;30924658;28;97026;-65
2023/07/14 12:38:28;;;;;;;5.90;1.60;;;;;;;31.63;26.21;100318.69;30973918;28;97812;-69
2023/07/14 12:53:31;;;;;;;3.75;1.40;;;;;;;31.93;26.30;100297.06;30856128;28;102340;-69
2023/07/14 13:08:32;;;;;;;4.57;1.20;;;;;;;32.48;25.32;100290.50;30921240;28;97158;-68
2023/07/14 13:23:33;;;;;;;4.80;1.50;;;;;;;31.52;26.53;100275.94;30852842;28;96906;-71
2023/07/14 13:38:34;;;;;;;5.57;1.50;;;;;;;30.99;27.36;100258.88;30853899;28;96755;-67
2023/07/14 13:53:35;;;;;;;4.60;1.57;;;;;;;30.83;28.43;100249.28;30851802;28;96819;-67
2023/07/14 14:08:35;;;;;;;3.63;1.30;;;;;;;30.66;28.63;100227.88;30850139;28;97579;-66
2023/07/14 14:23:35;;;;;;;1.95;1.15;;;;;;;31.11;28.29;100210.78;30850158;28;96946;-66
2023/07/14 14:38:36;;;;;;;7.22;1.65;;;;;;;30.83;28.57;100206.09;30850987;28;99285;-65
2023/07/14 14:53:37;;;;;;;4.90;1.60;;;;;;;29.95;29.79;100203.28;30849356;28;96723;-66
2023/07/14 15:08:38;;;;;;;4.40;1.50;;;;;;;29.78;29.68;100176.38;30827264;28;97348;-66
2023/07/14 15:23:38;;;;;;;3.47;1.55;;;;;;;29.37;30.48;100167.69;30752563;28;97517;-66
2023/07/14 15:38:38;;;;;;;3.63;1.45;;;;;;;29.14;31.19;100161.13;30800832;28;115331;-67
2023/07/14 15:53:40;;;;;;;9.30;1.60;;;;;;;29.26;31.75;100149.72;30855372;28;97395;-67
2023/07/14 16:08:41;;;;;;;3.43;1.40;;;;;;;29.51;32.07;100140.28;30851978;28;96814;-66
2023/07/14 16:23:41;;;;;;;1.67;1.37;;;;;;;29.01;31.83;100132.47;30848642;28;97258;-66
2023/07/14 16:38:42;;;;;;;2.58;1.45;;;;;;;28.80;32.80;100131.13;30847636;28;96735;-66
2023/07/14 16:53:42;;;;;;;5.55;1.60;;;;;;;28.23;33.79;100129.03;30849240;28;97184;-66
2023/07/14 17:08:44;;;;;;;2.72;1.85;;;;;;;27.73;34.58;100131.09;30848511;28;96784;-66
2023/07/14 17:23:44;;;;;;;10.03;2.10;;;;;;;26.85;35.84;100120.72;30846356;28;96783;-66
2023/07/14 17:38:45;;;;;;;5.15;1.90;;;;;;;26.17;37.15;100119.28;30838064;28;111762;-66
2023/07/14 17:53:45;;;;;;;3.20;1.70;;;;;;;25.67;38.15;100119.84;30854542;28;104760;-66
2023/07/14 18:08:45;;;;;;;5.40;1.70;;;;;;;25.14;39.42;100111.03;30853492;28;99089;-66
2023/07/14 18:23:46;;;;;;;3.60;1.85;;;;;;;24.59;40.95;100111.38;30853627;28;110585;-67
2023/07/14 18:38:47;;;;;;;6.18;2.25;;;;;;;24.02;42.84;100101.25;30852425;28;97358;-66
2023/07/14 18:53:49;;;;;;;3.83;1.73;;;;;;;23.65;44.18;100090.09;30854964;28;96774;-66
2023/07/14 19:08:51;;;;;;;7.07;2.30;;;;;;;23.82;44.03;100100.84;30865807;28;97354;-66
2023/07/14 19:23:52;;;;;;;5.93;2.83;;;;;;;23.77;44.90;100087.19;30786371;28;96800;-66
2023/07/14 19:38:52;;;;;;;5.82;2.67;;;;;;;23.55;45.18;100091.91;30737295;28;104211;-66
2023/07/14 19:53:54;;;;;;;5.53;2.30;;;;;;;23.12;45.76;100091.75;30735682;28;96799;-71
2023/07/14 20:08:56;;;;;;;4.73;2.33;;;;;;;22.72;46.79;100084.78;30734266;28;97209;-67
2023/07/14 20:24:14;;;;;;;5.27;2.40;;;;;;;22.43;47.38;100084.97;30732196;28;97310;-70
2023/07/14 20:39:14;;;;;;;3.63;2.63;;;;;;;22.12;48.50;100081.81;30754770;28;97563;-69
2023/07/14 20:54:15;;;;;;;4.53;2.60;;;;;;;21.79;49.42;100084.31;30782916;28;101720;-67
2023/07/14 21:09:15;;;;;;;6.68;2.80;;;;;;;21.61;50.16;100085.41;30860251;28;97208;-66
2023/07/14 21:24:17;;;;;;;9.55;4.60;;;;;;;21.36;51.06;100090.34;30970888;28;97360;-67
2023/07/14 21:39:23;;;;;;;9.47;3.50;;;;;;;21.14;52.05;100080.22;30971263;28;97242;-67
2023/07/14 21:54:26;;;;;;;8.10;3.80;;;;;;;20.97;52.53;100069.34;30969045;28;97893;-67
2023/07/14 22:09:26;;;;;;;6.07;3.27;;;;;;;20.60;53.34;100075.09;30969744;28;97277;-68
2023/07/14 22:24:26;;;;;;;5.23;3.20;;;;;;;20.44;54.01;100063.13;30968017;28;97161;-67
2023/07/14 22:39:27;;;;;;;5.43;3.43;;;;;;;20.19;54.49;100060.69;30982373;28;96987;-67
2023/07/14 22:54:27;;;;;;;6.50;3.30;;;;;;;19.99;54.87;100058.38;30864560;28;97158;-67
2023/07/14 23:09:27;;;;;;;6.43;4.40;;;;;;;19.75;55.70;100058.31;30860628;28;109024;-67
2023/07/14 23:24:28;;;;;;;5.10;3.75;;;;;;;19.05;55.87;100033.66;30861526;28;110463;-67
2023/07/14 23:39:28;;;;;;;5.13;4.03;;;;;;;18.50;57.22;100036.47;30869496;28;96608;-68
2023/07/14 23:54:29;;;;;;;10.05;3.97;;;;;;;18.09;58.29;100030.69;30868854;28;97550;-68
